createdAt,value
2023-05-15T09:57:38.327Z,36.20
2023-05-15T09:58:38.285Z,43.00
2023-05-15T10:00:25.906Z,38.90
2023-05-15T10:01:25.686Z,43.90
2023-05-15T10:02:25.675Z,44.40
2023-05-15T10:03:25.654Z,43.20
2023-05-15T10:04:25.639Z,43.20
2023-05-15T10:05:41.598Z,42.00
2023-05-15T10:11:59.531Z,36.90
2023-05-15T10:12:59.492Z,39.50
2023-05-15T10:13:59.486Z,41.30
2023-05-15T10:14:59.580Z,40.70
2023-05-15T10:15:59.521Z,40.50
2023-05-15T10:16:59.430Z,39.00
2023-05-15T10:17:59.489Z,41.10
2023-05-15T10:18:59.421Z,39.30
2023-05-15T10:19:59.423Z,38.80
2023-05-15T10:20:59.399Z,40.30
2023-05-15T10:21:59.353Z,38.60
2023-05-15T10:22:59.365Z,38.30
2023-05-15T10:24:06.899Z,38.00
2023-05-15T10:24:59.361Z,38.20
2023-05-15T10:25:59.295Z,38.60
2023-05-15T10:26:59.304Z,38.10
2023-05-15T10:27:59.285Z,37.30
2023-05-15T10:28:59.279Z,38.80
2023-05-15T10:29:59.264Z,38.00
2023-05-15T10:30:59.280Z,37.10
2023-05-15T10:31:59.271Z,36.90
2023-05-15T10:32:59.209Z,37.90
2023-05-15T10:33:59.173Z,37.20
2023-05-15T10:34:59.202Z,36.80
2023-05-15T10:35:59.165Z,36.60
2023-05-15T10:36:59.136Z,35.90
2023-05-15T10:37:59.120Z,35.40
2023-05-15T10:38:59.109Z,36.00
2023-05-15T10:39:59.098Z,36.50
2023-05-15T10:41:13.039Z,35.90
2023-05-15T10:41:59.077Z,36.90
2023-05-15T10:42:59.080Z,36.70
2023-05-15T10:43:59.046Z,35.50
2023-05-15T10:44:59.049Z,36.80
2023-05-15T10:45:59.002Z,36.30
2023-05-15T10:46:59.045Z,37.20
2023-05-15T10:47:59.043Z,35.50
2023-05-15T10:48:58.959Z,33.60
2023-05-15T10:49:58.942Z,34.60
2023-05-15T10:50:58.959Z,34.60
2023-05-15T10:51:58.904Z,35.50
2023-05-15T10:52:58.905Z,34.20
2023-05-15T10:53:58.879Z,34.80
2023-05-15T10:54:58.872Z,34.90
2023-05-15T10:55:58.915Z,34.90
2023-05-15T10:56:58.850Z,33.60
2023-05-15T10:57:58.826Z,32.60
2023-05-15T10:58:58.824Z,33.40
2023-05-15T10:59:58.810Z,34.30
2023-05-15T11:00:58.820Z,32.40
2023-05-15T11:01:58.779Z,34.30
2023-05-15T11:02:58.878Z,32.10
2023-05-15T11:03:58.763Z,32.70
2023-05-15T11:04:58.744Z,33.60
2023-05-15T11:05:58.720Z,32.50
2023-05-15T11:06:58.700Z,32.30
2023-05-15T11:07:58.687Z,30.90
2023-05-15T11:08:58.669Z,30.90
2023-05-15T11:09:58.649Z,30.80
2023-05-15T11:10:58.653Z,29.20
2023-05-15T11:11:58.634Z,29.00
2023-05-15T11:12:58.605Z,29.30
2023-05-15T11:13:58.588Z,28.90
2023-05-15T11:14:58.578Z,28.90
2023-05-15T11:15:58.571Z,28.30
2023-05-15T11:16:58.590Z,28.50
2023-05-15T11:17:58.562Z,30.40
2023-05-15T11:18:58.578Z,29.60
2023-05-15T11:19:58.570Z,28.70
2023-05-15T11:20:58.527Z,27.40
2023-05-15T11:21:58.495Z,27.10
2023-05-15T11:22:58.464Z,28.60
2023-05-15T11:23:58.468Z,28.20
2023-05-15T11:24:58.470Z,26.80
2023-05-15T11:25:58.443Z,26.50
2023-05-15T11:26:59.244Z,27.20
2023-05-15T11:27:58.384Z,27.20
2023-05-15T11:28:58.378Z,26.60
2023-05-15T11:29:58.385Z,25.00
2023-05-15T11:30:58.408Z,23.00
2023-05-15T11:31:58.354Z,23.50
2023-05-15T11:32:58.598Z,23.90
2023-05-15T11:33:58.303Z,21.80
2023-05-15T11:34:58.379Z,23.70
2023-05-15T11:35:58.293Z,22.90
2023-05-15T11:36:58.287Z,23.20
2023-05-15T11:37:58.264Z,22.80
2023-05-15T11:38:58.236Z,23.30
2023-05-15T11:39:58.249Z,23.30
2023-05-15T11:40:58.236Z,23.10
2023-05-15T11:41:59.299Z,21.80
2023-05-15T11:42:58.204Z,22.90
2023-05-15T11:43:58.160Z,23.50
2023-05-15T11:44:58.173Z,24.20
2023-05-15T11:45:58.221Z,22.80
2023-05-15T11:46:58.226Z,22.70
2023-05-15T11:47:58.159Z,23.60
2023-05-15T11:48:59.493Z,23.10
2023-05-15T11:49:58.102Z,23.00
2023-05-15T11:50:58.108Z,24.30
2023-05-15T11:51:58.063Z,23.70
2023-05-15T11:52:58.074Z,22.80
2023-05-15T11:53:58.027Z,22.50
2023-05-15T11:54:58.029Z,23.10
2023-05-15T11:55:58.020Z,21.90
2023-05-15T11:56:58.006Z,21.20
2023-05-15T11:57:57.971Z,21.50
2023-05-15T11:58:57.988Z,20.60
2023-05-15T11:59:57.965Z,22.90
2023-05-15T12:00:57.976Z,23.20
2023-05-15T12:01:57.943Z,23.10
2023-05-15T12:02:58.036Z,22.50
2023-05-15T12:03:58.140Z,23.50
2023-05-15T12:04:57.931Z,22.30
2023-05-15T12:06:00.000Z,21.00
2023-05-15T12:06:57.912Z,20.40
2023-05-15T12:07:57.859Z,19.70
2023-05-15T12:08:57.834Z,19.10
2023-05-15T12:09:58.654Z,18.60
2023-05-15T12:10:57.835Z,18.90
2023-05-15T12:11:57.811Z,19.40
2023-05-15T12:12:57.817Z,18.30
2023-05-15T12:13:57.761Z,18.80
2023-05-15T12:14:57.788Z,17.70
2023-05-15T12:15:57.758Z,19.40
2023-05-15T12:16:57.865Z,18.80
2023-05-15T12:17:57.771Z,18.40
2023-05-15T12:18:57.910Z,18.40
2023-05-15T12:19:57.708Z,18.50
2023-05-15T12:20:57.689Z,17.30
2023-05-15T12:21:57.682Z,17.30
2023-05-15T12:22:57.653Z,17.60
2023-05-15T12:24:06.910Z,17.60
2023-05-15T12:24:57.644Z,17.70
2023-05-15T12:25:57.613Z,16.50
2023-05-15T12:26:57.804Z,16.30
2023-05-15T12:27:57.582Z,15.40
2023-05-15T12:28:57.624Z,16.90
2023-05-15T12:29:57.587Z,16.00
2023-05-15T12:30:57.574Z,16.80
2023-05-15T12:31:57.610Z,15.60
2023-05-15T12:32:57.564Z,13.70
2023-05-15T12:33:57.545Z,13.30
2023-05-15T12:34:57.510Z,13.00
2023-05-15T12:36:01.056Z,12.20
2023-05-15T12:36:57.478Z,13.70
2023-05-15T12:37:57.478Z,12.60
2023-05-15T12:38:57.448Z,13.00
2023-05-15T12:39:57.477Z,11.80
2023-05-15T12:40:57.423Z,12.10
2023-05-15T12:41:57.428Z,12.00
2023-05-15T12:42:57.443Z,12.40
2023-05-15T12:43:57.405Z,11.70
2023-05-15T12:44:57.405Z,10.60
2023-05-15T12:45:57.441Z,11.40
2023-05-15T12:46:57.374Z,13.00
2023-05-15T12:47:57.386Z,13.00
2023-05-15T12:48:57.352Z,10.90
2023-05-15T12:49:57.331Z,10.10
2023-05-15T12:50:57.310Z,11.40
2023-05-15T12:51:57.290Z,10.10
2023-05-15T12:52:57.294Z,10.20
2023-05-15T12:53:57.266Z,10.20
2023-05-15T12:54:57.300Z,9.40
2023-05-15T12:55:57.242Z,10.00
2023-05-15T12:56:57.692Z,9.80
2023-05-15T12:57:57.245Z,8.90
2023-05-15T12:58:57.269Z,9.30
2023-05-15T12:59:57.219Z,9.60
2023-05-15T13:00:57.226Z,9.40
2023-05-15T13:01:57.297Z,8.80
2023-05-15T13:02:57.279Z,7.70
2023-05-15T13:03:57.409Z,8.30
2023-05-15T13:04:57.204Z,8.70
2023-05-15T13:05:57.173Z,8.10
2023-05-15T13:06:57.177Z,8.40
2023-05-15T13:07:57.107Z,7.70
2023-05-15T13:08:57.102Z,7.60
2023-05-15T13:09:57.124Z,9.00
2023-05-15T13:10:57.130Z,9.10
2023-05-15T13:12:47.654Z,8.90
2023-05-15T13:13:47.579Z,9.70
2023-05-15T13:14:47.573Z,9.70
2023-05-15T13:15:47.596Z,10.60
2023-05-15T13:16:47.534Z,9.20
2023-05-15T13:17:47.521Z,9.80
2023-05-15T13:18:47.606Z,10.40
2023-05-15T13:19:47.502Z,10.10
2023-05-15T13:20:47.506Z,10.60
2023-05-15T13:21:47.461Z,10.30
2023-05-15T13:22:47.461Z,9.20
2023-05-15T13:23:47.452Z,8.60
2023-05-15T13:24:47.469Z,8.60
2023-05-15T13:25:47.460Z,8.10
2023-05-15T13:26:47.459Z,8.80
2023-05-15T13:27:47.421Z,9.40
2023-05-15T13:28:47.460Z,9.80
2023-05-15T13:29:47.394Z,8.90
2023-05-15T13:30:47.413Z,8.90
2023-05-15T13:31:47.392Z,8.60
2023-05-15T13:32:47.420Z,8.30
2023-05-15T13:33:47.339Z,8.80
2023-05-15T13:34:47.343Z,8.50
2023-05-15T13:35:47.362Z,9.50
2023-05-15T13:36:47.343Z,8.80
2023-05-15T13:37:47.331Z,8.40
2023-05-15T13:38:47.336Z,8.40
2023-05-15T13:39:47.319Z,7.30
2023-05-15T13:40:47.308Z,7.30
2023-05-15T13:41:47.289Z,6.20
2023-05-15T13:42:47.266Z,6.60
2023-05-15T13:43:47.265Z,5.90
2023-05-15T13:44:47.274Z,6.90
2023-05-15T13:45:47.262Z,6.70
2023-05-15T13:46:47.260Z,6.30
2023-05-15T13:47:47.262Z,6.50
2023-05-15T13:48:47.247Z,6.90
2023-05-15T13:49:47.213Z,6.40
2023-05-15T13:50:47.256Z,6.60
2023-05-15T13:51:47.178Z,6.00
2023-05-15T13:52:47.186Z,5.90
2023-05-15T13:53:47.158Z,5.30
2023-05-15T13:54:47.159Z,4.30
2023-05-15T13:57:20.793Z,4.00
2023-05-15T13:58:20.754Z,4.70
2023-05-15T13:59:20.764Z,5.70
2023-05-15T14:00:20.725Z,6.10
2023-05-15T14:01:20.784Z,5.60
2023-05-15T14:02:20.725Z,5.50
2023-05-15T14:03:20.848Z,6.30
2023-05-15T14:04:20.791Z,6.50
2023-05-15T14:09:18.115Z,5.60
2023-05-15T14:10:18.107Z,6.50
2023-05-15T14:11:18.112Z,6.30
2023-05-15T14:13:48.709Z,5.80
2023-05-15T14:18:09.875Z,6.70
2023-05-15T14:19:09.880Z,6.70
2023-05-15T14:20:48.916Z,5.70
2023-05-15T14:21:48.879Z,6.70
2023-05-15T14:22:48.883Z,6.70
2023-05-15T14:23:48.848Z,6.30
2023-05-15T14:24:48.861Z,6.20
2023-05-15T14:26:01.727Z,5.60
2023-05-15T14:27:43.409Z,5.60
2023-05-15T14:30:32.230Z,5.90
2023-05-15T14:31:32.204Z,6.10
2023-05-15T14:32:32.202Z,6.50
2023-05-15T14:33:32.206Z,5.60
2023-05-15T14:38:40.252Z,5.10
2023-05-15T14:39:40.231Z,5.40
2023-05-15T14:40:40.229Z,6.20
2023-05-15T14:41:40.231Z,5.80
2023-05-15T14:42:40.198Z,6.20
2023-05-15T14:43:40.186Z,6.70
2023-05-15T14:44:40.170Z,6.60
2023-05-15T14:45:40.164Z,6.40
2023-05-15T14:46:40.296Z,6.70
2023-05-15T14:47:40.157Z,6.60
2023-05-15T14:48:40.146Z,6.10
2023-05-15T14:49:40.143Z,6.20
2023-05-15T14:50:40.130Z,6.70
2023-05-15T14:51:40.122Z,6.40
2023-05-15T14:52:40.095Z,5.90
2023-05-15T14:53:40.111Z,5.60
2023-05-15T14:54:40.097Z,5.80
2023-05-15T14:55:40.108Z,5.50
2023-05-15T14:56:40.065Z,5.50
2023-05-15T14:57:40.055Z,5.40
2023-05-15T14:58:40.057Z,5.30
2023-05-15T14:59:40.047Z,5.50
2023-05-15T15:00:40.023Z,4.90
2023-05-15T15:01:40.327Z,5.50
2023-05-15T15:02:40.033Z,5.20
2023-05-15T15:03:40.124Z,5.20
2023-05-15T15:04:39.992Z,5.20
2023-05-15T15:05:40.014Z,5.00
2023-05-15T15:06:39.991Z,5.10
2023-05-15T15:07:39.980Z,5.20
2023-05-15T15:08:39.976Z,5.10
2023-05-15T15:09:39.975Z,5.80
2023-05-15T15:10:39.977Z,5.60
2023-05-15T15:11:39.957Z,5.60
2023-05-15T15:12:39.962Z,5.80
2023-05-15T15:13:39.946Z,5.70
2023-05-15T15:14:39.913Z,5.30
2023-05-15T15:15:39.914Z,4.90
2023-05-15T15:18:15.902Z,4.10
2023-05-15T15:19:18.969Z,5.10
2023-05-15T15:20:15.880Z,5.20
2023-05-15T15:21:15.923Z,5.20
2023-05-15T15:22:15.952Z,5.60
2023-05-15T15:23:15.910Z,5.20
2023-05-15T15:24:15.878Z,4.80
2023-05-15T15:41:34.496Z,7.80
2023-05-15T15:47:05.974Z,10.40
2023-05-15T15:48:05.986Z,11.40
2023-05-15T15:50:12.760Z,12.00
2023-05-15T15:51:12.776Z,12.70
2023-05-15T15:52:12.731Z,12.90
2023-05-15T16:00:27.454Z,13.10
2023-05-15T16:01:27.415Z,13.30
2023-05-15T16:02:27.364Z,13.00
2023-05-15T16:05:29.638Z,11.90
2023-05-15T16:09:56.965Z,11.40
2023-05-15T16:10:49.178Z,12.20
2023-05-15T16:11:49.136Z,11.50
2023-05-15T16:13:42.045Z,9.00
2023-05-15T16:20:58.485Z,8.90
2023-05-15T16:21:58.371Z,10.20
2023-05-15T16:22:58.358Z,10.40
2023-05-15T16:27:47.036Z,8.10
2023-05-15T16:28:46.980Z,9.50
2023-05-15T16:29:46.997Z,9.10
2023-05-15T16:30:49.260Z,9.60
2023-05-15T16:31:47.111Z,9.10
2023-05-15T16:33:43.725Z,7.30
2023-05-15T16:34:43.733Z,8.70
2023-05-15T16:35:43.717Z,8.20
2023-05-15T16:36:43.728Z,8.70
2023-05-15T16:37:43.675Z,8.70
2023-05-15T16:38:43.675Z,8.90
2023-05-15T16:39:43.662Z,8.70
2023-05-15T16:40:43.652Z,9.10
2023-05-15T16:41:43.648Z,8.90
2023-05-15T16:43:10.427Z,9.00
2023-05-15T16:44:10.399Z,9.50
2023-05-15T16:45:10.382Z,9.80
2023-05-15T16:46:10.458Z,9.80
2023-05-15T16:47:10.438Z,10.40
2023-05-15T16:48:10.424Z,10.80
2023-05-15T16:49:10.362Z,11.30
2023-05-15T17:02:08.564Z,10.50
2023-05-15T17:04:02.077Z,10.70
2023-05-15T17:05:02.011Z,10.60
2023-05-15T17:06:01.988Z,10.90
2023-05-15T17:15:02.669Z,8.60
